sensor_id;sensor_type;location;lat;lon;timestamp;P1;durP1;ratioP1;P2;durP2;ratioP2
61685;SDS011;47592;45.904;8.978;2022-08-19T00:02:09;2.53;;;0.80;;
61685;SDS011;47592;45.904;8.978;2022-08-19T00:04:34;2.78;;;0.90;;
61685;SDS011;47592;45.904;8.978;2022-08-19T00:07:02;1.80;;;0.63;;
61685;SDS011;47592;45.904;8.978;2022-08-19T00:11:56;2.50;;;0.70;;
61685;SDS011;47592;45.904;8.978;2022-08-19T00:14:24;2.72;;;0.90;;
61685;SDS011;47592;45.904;8.978;2022-08-19T00:16:51;1.73;;;0.65;;
61685;SDS011;47592;45.904;8.978;2022-08-19T00:19:19;1.85;;;0.60;;
61685;SDS011;47592;45.904;8.978;2022-08-19T00:21:45;2.70;;;0.80;;
61685;SDS011;47592;45.904;8.978;2022-08-19T00:24:12;2.17;;;1.17;;
61685;SDS011;47592;45.904;8.978;2022-08-19T00:26:38;2.75;;;0.80;;
61685;SDS011;47592;45.904;8.978;2022-08-19T00:29:05;4.28;;;0.90;;
61685;SDS011;47592;45.904;8.978;2022-08-19T00:31:31;4.93;;;1.10;;
61685;SDS011;47592;45.904;8.978;2022-08-19T00:33:56;2.80;;;0.75;;
61685;SDS011;47592;45.904;8.978;2022-08-19T00:36:22;2.83;;;0.90;;
61685;SDS011;47592;45.904;8.978;2022-08-19T00:38:48;1.92;;;0.75;;
61685;SDS011;47592;45.904;8.978;2022-08-19T00:41:15;3.45;;;1.00;;
61685;SDS011;47592;45.904;8.978;2022-08-19T00:44:28;3.13;;;0.90;;
61685;SDS011;47592;45.904;8.978;2022-08-19T00:46:40;4.97;;;0.90;;
61685;SDS011;47592;45.904;8.978;2022-08-19T00:49:19;2.53;;;0.85;;
61685;SDS011;47592;45.904;8.978;2022-08-19T00:51:48;2.78;;;0.90;;
61685;SDS011;47592;45.904;8.978;2022-08-19T00:54:15;4.18;;;1.08;;
61685;SDS011;47592;45.904;8.978;2022-08-19T00:56:41;2.10;;;0.70;;
61685;SDS011;47592;45.904;8.978;2022-08-19T00:59:07;2.97;;;0.90;;
61685;SDS011;47592;45.904;8.978;2022-08-19T01:01:37;2.97;;;0.95;;
61685;SDS011;47592;45.904;8.978;2022-08-19T01:04:04;3.33;;;0.70;;
61685;SDS011;47592;45.904;8.978;2022-08-19T01:06:29;4.25;;;1.02;;
61685;SDS011;47592;45.904;8.978;2022-08-19T01:08:57;1.95;;;0.80;;
61685;SDS011;47592;45.904;8.978;2022-08-19T01:11:23;4.55;;;1.15;;
61685;SDS011;47592;45.904;8.978;2022-08-19T01:13:49;4.10;;;1.02;;
61685;SDS011;47592;45.904;8.978;2022-08-19T01:16:16;3.45;;;0.90;;
61685;SDS011;47592;45.904;8.978;2022-08-19T01:18:43;3.25;;;0.75;;
61685;SDS011;47592;45.904;8.978;2022-08-19T01:23:45;3.97;;;1.00;;
61685;SDS011;47592;45.904;8.978;2022-08-19T01:26:16;3.10;;;0.90;;
61685;SDS011;47592;45.904;8.978;2022-08-19T01:28:44;3.33;;;0.70;;
61685;SDS011;47592;45.904;8.978;2022-08-19T01:31:12;3.13;;;0.90;;
61685;SDS011;47592;45.904;8.978;2022-08-19T01:33:39;2.75;;;0.70;;
61685;SDS011;47592;45.904;8.978;2022-08-19T01:36:09;3.67;;;0.85;;
61685;SDS011;47592;45.904;8.978;2022-08-19T01:38:38;4.53;;;1.00;;
61685;SDS011;47592;45.904;8.978;2022-08-19T01:41:05;3.53;;;1.02;;
61685;SDS011;47592;45.904;8.978;2022-08-19T01:43:31;2.88;;;0.88;;
61685;SDS011;47592;45.904;8.978;2022-08-19T01:45:57;4.03;;;1.00;;
61685;SDS011;47592;45.904;8.978;2022-08-19T01:48:22;3.65;;;1.27;;
61685;SDS011;47592;45.904;8.978;2022-08-19T01:50:48;4.20;;;0.90;;
61685;SDS011;47592;45.904;8.978;2022-08-19T01:53:13;4.00;;;0.80;;
61685;SDS011;47592;45.904;8.978;2022-08-19T01:55:40;3.58;;;0.77;;
61685;SDS011;47592;45.904;8.978;2022-08-19T01:58:17;2.53;;;0.90;;
61685;SDS011;47592;45.904;8.978;2022-08-19T02:00:45;3.45;;;0.90;;
61685;SDS011;47592;45.904;8.978;2022-08-19T02:03:11;3.72;;;0.93;;
61685;SDS011;47592;45.904;8.978;2022-08-19T02:05:36;4.18;;;1.02;;
61685;SDS011;47592;45.904;8.978;2022-08-19T02:08:03;2.50;;;0.90;;
61685;SDS011;47592;45.904;8.978;2022-08-19T02:10:28;2.72;;;0.90;;
61685;SDS011;47592;45.904;8.978;2022-08-19T02:12:53;5.00;;;1.02;;
61685;SDS011;47592;45.904;8.978;2022-08-19T02:15:19;2.50;;;0.80;;
61685;SDS011;47592;45.904;8.978;2022-08-19T02:17:44;2.80;;;0.80;;
61685;SDS011;47592;45.904;8.978;2022-08-19T02:20:10;2.65;;;0.80;;
61685;SDS011;47592;45.904;8.978;2022-08-19T02:22:37;3.03;;;1.08;;
61685;SDS011;47592;45.904;8.978;2022-08-19T02:25:06;5.25;;;1.10;;
61685;SDS011;47592;45.904;8.978;2022-08-19T02:27:32;2.45;;;0.82;;
61685;SDS011;47592;45.904;8.978;2022-08-19T02:29:58;3.10;;;0.90;;
61685;SDS011;47592;45.904;8.978;2022-08-19T02:32:24;4.28;;;0.90;;
61685;SDS011;47592;45.904;8.978;2022-08-19T02:34:49;5.88;;;1.13;;
61685;SDS011;47592;45.904;8.978;2022-08-19T02:37:14;2.47;;;0.85;;
61685;SDS011;47592;45.904;8.978;2022-08-19T02:39:58;2.92;;;0.90;;
61685;SDS011;47592;45.904;8.978;2022-08-19T02:42:24;5.03;;;1.05;;
61685;SDS011;47592;45.904;8.978;2022-08-19T02:44:50;3.55;;;0.82;;
61685;SDS011;47592;45.904;8.978;2022-08-19T02:47:16;3.33;;;1.00;;
61685;SDS011;47592;45.904;8.978;2022-08-19T02:49:43;2.30;;;0.73;;
61685;SDS011;47592;45.904;8.978;2022-08-19T02:52:09;3.92;;;0.88;;
61685;SDS011;47592;45.904;8.978;2022-08-19T02:54:36;2.63;;;0.95;;
61685;SDS011;47592;45.904;8.978;2022-08-19T02:57:03;2.35;;;0.77;;
61685;SDS011;47592;45.904;8.978;2022-08-19T02:59:29;3.88;;;1.17;;
61685;SDS011;47592;45.904;8.978;2022-08-19T03:01:55;4.38;;;0.77;;
61685;SDS011;47592;45.904;8.978;2022-08-19T03:04:21;3.08;;;0.95;;
61685;SDS011;47592;45.904;8.978;2022-08-19T03:06:48;1.85;;;0.70;;
61685;SDS011;47592;45.904;8.978;2022-08-19T03:09:14;4.38;;;1.00;;
61685;SDS011;47592;45.904;8.978;2022-08-19T03:11:40;3.67;;;0.80;;
61685;SDS011;47592;45.904;8.978;2022-08-19T03:14:07;3.85;;;1.10;;
61685;SDS011;47592;45.904;8.978;2022-08-19T03:16:34;3.53;;;0.95;;
61685;SDS011;47592;45.904;8.978;2022-08-19T03:19:02;4.53;;;1.23;;
61685;SDS011;47592;45.904;8.978;2022-08-19T03:21:29;3.58;;;0.90;;
61685;SDS011;47592;45.904;8.978;2022-08-19T03:23:57;3.40;;;0.90;;
61685;SDS011;47592;45.904;8.978;2022-08-19T03:26:24;3.40;;;1.10;;
61685;SDS011;47592;45.904;8.978;2022-08-19T03:28:50;2.35;;;0.88;;
61685;SDS011;47592;45.904;8.978;2022-08-19T03:31:16;2.65;;;0.80;;
61685;SDS011;47592;45.904;8.978;2022-08-19T03:33:47;3.92;;;1.05;;
61685;SDS011;47592;45.904;8.978;2022-08-19T03:36:15;3.90;;;0.80;;
61685;SDS011;47592;45.904;8.978;2022-08-19T03:38:44;2.57;;;0.80;;
61685;SDS011;47592;45.904;8.978;2022-08-19T03:41:15;2.25;;;0.60;;
61685;SDS011;47592;45.904;8.978;2022-08-19T03:43:43;3.22;;;0.80;;
61685;SDS011;47592;45.904;8.978;2022-08-19T03:46:12;4.80;;;0.90;;
61685;SDS011;47592;45.904;8.978;2022-08-19T03:48:39;3.78;;;1.08;;
61685;SDS011;47592;45.904;8.978;2022-08-19T03:51:06;1.30;;;0.60;;
61685;SDS011;47592;45.904;8.978;2022-08-19T03:53:33;5.82;;;1.00;;
61685;SDS011;47592;45.904;8.978;2022-08-19T03:55:59;3.20;;;0.80;;
61685;SDS011;47592;45.904;8.978;2022-08-19T03:58:25;2.63;;;0.85;;
61685;SDS011;47592;45.904;8.978;2022-08-19T04:00:53;2.20;;;0.70;;
61685;SDS011;47592;45.904;8.978;2022-08-19T04:03:20;3.45;;;0.82;;
61685;SDS011;47592;45.904;8.978;2022-08-19T04:05:46;4.03;;;0.80;;
61685;SDS011;47592;45.904;8.978;2022-08-19T04:08:11;2.33;;;0.82;;
61685;SDS011;47592;45.904;8.978;2022-08-19T04:10:37;4.32;;;0.80;;
61685;SDS011;47592;45.904;8.978;2022-08-19T04:13:03;2.85;;;0.73;;
61685;SDS011;47592;45.904;8.978;2022-08-19T04:15:30;3.38;;;0.82;;
61685;SDS011;47592;45.904;8.978;2022-08-19T04:18:00;3.85;;;1.00;;
61685;SDS011;47592;45.904;8.978;2022-08-19T04:20:26;3.95;;;0.73;;
61685;SDS011;47592;45.904;8.978;2022-08-19T04:22:51;2.63;;;0.80;;
61685;SDS011;47592;45.904;8.978;2022-08-19T04:25:17;2.78;;;0.80;;
61685;SDS011;47592;45.904;8.978;2022-08-19T04:27:42;3.60;;;0.70;;
61685;SDS011;47592;45.904;8.978;2022-08-19T04:30:11;4.13;;;1.00;;
61685;SDS011;47592;45.904;8.978;2022-08-19T04:32:37;3.25;;;0.85;;
61685;SDS011;47592;45.904;8.978;2022-08-19T04:35:03;7.10;;;1.02;;
61685;SDS011;47592;45.904;8.978;2022-08-19T04:37:29;2.72;;;0.80;;
61685;SDS011;47592;45.904;8.978;2022-08-19T04:39:58;3.47;;;0.90;;
61685;SDS011;47592;45.904;8.978;2022-08-19T04:42:53;1.90;;;0.70;;
61685;SDS011;47592;45.904;8.978;2022-08-19T04:45:19;4.30;;;1.02;;
61685;SDS011;47592;45.904;8.978;2022-08-19T04:47:44;2.60;;;0.73;;
61685;SDS011;47592;45.904;8.978;2022-08-19T04:50:10;3.15;;;0.73;;
61685;SDS011;47592;45.904;8.978;2022-08-19T04:52:36;3.05;;;0.80;;
61685;SDS011;47592;45.904;8.978;2022-08-19T04:55:07;1.92;;;0.70;;
61685;SDS011;47592;45.904;8.978;2022-08-19T04:57:33;4.65;;;0.85;;
61685;SDS011;47592;45.904;8.978;2022-08-19T04:59:59;2.25;;;0.80;;
61685;SDS011;47592;45.904;8.978;2022-08-19T05:02:24;3.47;;;0.75;;
61685;SDS011;47592;45.904;8.978;2022-08-19T05:04:50;3.28;;;0.80;;
61685;SDS011;47592;45.904;8.978;2022-08-19T05:07:16;3.85;;;1.00;;
61685;SDS011;47592;45.904;8.978;2022-08-19T05:09:42;4.60;;;0.88;;
61685;SDS011;47592;45.904;8.978;2022-08-19T05:12:07;3.33;;;1.10;;
61685;SDS011;47592;45.904;8.978;2022-08-19T05:14:33;2.33;;;0.75;;
61685;SDS011;47592;45.904;8.978;2022-08-19T05:17:00;5.50;;;1.25;;
61685;SDS011;47592;45.904;8.978;2022-08-19T05:19:25;2.53;;;0.80;;
61685;SDS011;47592;45.904;8.978;2022-08-19T05:22:10;3.88;;;1.20;;
61685;SDS011;47592;45.904;8.978;2022-08-19T05:24:54;2.72;;;0.70;;
61685;SDS011;47592;45.904;8.978;2022-08-19T05:27:19;3.08;;;0.80;;
61685;SDS011;47592;45.904;8.978;2022-08-19T05:29:45;2.35;;;0.85;;
61685;SDS011;47592;45.904;8.978;2022-08-19T05:32:10;5.20;;;1.00;;
61685;SDS011;47592;45.904;8.978;2022-08-19T05:34:36;2.67;;;0.80;;
61685;SDS011;47592;45.904;8.978;2022-08-19T05:37:03;3.10;;;0.77;;
61685;SDS011;47592;45.904;8.978;2022-08-19T05:39:30;3.90;;;0.80;;
61685;SDS011;47592;45.904;8.978;2022-08-19T05:41:59;2.17;;;0.80;;
61685;SDS011;47592;45.904;8.978;2022-08-19T05:44:27;3.10;;;0.95;;
61685;SDS011;47592;45.904;8.978;2022-08-19T05:46:56;3.88;;;0.90;;
61685;SDS011;47592;45.904;8.978;2022-08-19T05:49:23;2.70;;;0.77;;
61685;SDS011;47592;45.904;8.978;2022-08-19T05:51:50;2.60;;;0.80;;
61685;SDS011;47592;45.904;8.978;2022-08-19T05:54:16;2.42;;;0.70;;
61685;SDS011;47592;45.904;8.978;2022-08-19T05:56:42;2.40;;;0.70;;
61685;SDS011;47592;45.904;8.978;2022-08-19T05:59:09;5.45;;;1.00;;
61685;SDS011;47592;45.904;8.978;2022-08-19T06:01:40;4.35;;;0.90;;
61685;SDS011;47592;45.904;8.978;2022-08-19T06:04:07;2.47;;;0.80;;
61685;SDS011;47592;45.904;8.978;2022-08-19T06:06:33;2.65;;;0.90;;
61685;SDS011;47592;45.904;8.978;2022-08-19T06:09:00;3.03;;;0.90;;
61685;SDS011;47592;45.904;8.978;2022-08-19T06:14:25;5.70;;;1.80;;
61685;SDS011;47592;45.904;8.978;2022-08-19T06:16:52;4.53;;;1.13;;
61685;SDS011;47592;45.904;8.978;2022-08-19T06:19:19;5.20;;;1.00;;
61685;SDS011;47592;45.904;8.978;2022-08-19T06:21:46;3.95;;;1.00;;
61685;SDS011;47592;45.904;8.978;2022-08-19T06:24:14;3.13;;;1.05;;
61685;SDS011;47592;45.904;8.978;2022-08-19T06:26:41;3.83;;;0.85;;
61685;SDS011;47592;45.904;8.978;2022-08-19T06:29:09;4.53;;;0.82;;
61685;SDS011;47592;45.904;8.978;2022-08-19T06:31:35;3.75;;;1.10;;
61685;SDS011;47592;45.904;8.978;2022-08-19T06:34:02;3.35;;;0.95;;
61685;SDS011;47592;45.904;8.978;2022-08-19T06:36:33;4.57;;;1.00;;
61685;SDS011;47592;45.904;8.978;2022-08-19T06:39:02;2.13;;;0.70;;
61685;SDS011;47592;45.904;8.978;2022-08-19T06:41:40;1.88;;;0.70;;
61685;SDS011;47592;45.904;8.978;2022-08-19T06:44:06;3.75;;;1.00;;
61685;SDS011;47592;45.904;8.978;2022-08-19T06:46:32;4.05;;;0.98;;
61685;SDS011;47592;45.904;8.978;2022-08-19T06:48:58;4.22;;;1.10;;
61685;SDS011;47592;45.904;8.978;2022-08-19T06:51:23;3.78;;;1.20;;
61685;SDS011;47592;45.904;8.978;2022-08-19T06:53:50;5.30;;;0.98;;
61685;SDS011;47592;45.904;8.978;2022-08-19T06:56:17;6.65;;;1.05;;
61685;SDS011;47592;45.904;8.978;2022-08-19T06:58:44;3.50;;;0.90;;
61685;SDS011;47592;45.904;8.978;2022-08-19T07:01:11;4.15;;;0.95;;
61685;SDS011;47592;45.904;8.978;2022-08-19T07:03:37;3.40;;;0.80;;
61685;SDS011;47592;45.904;8.978;2022-08-19T07:06:07;2.67;;;1.05;;
61685;SDS011;47592;45.904;8.978;2022-08-19T07:08:35;6.15;;;1.25;;
61685;SDS011;47592;45.904;8.978;2022-08-19T07:11:02;5.82;;;1.30;;
61685;SDS011;47592;45.904;8.978;2022-08-19T07:13:31;4.40;;;1.30;;
61685;SDS011;47592;45.904;8.978;2022-08-19T07:16:04;3.88;;;1.20;;
61685;SDS011;47592;45.904;8.978;2022-08-19T07:21:06;5.60;;;1.00;;
61685;SDS011;47592;45.904;8.978;2022-08-19T07:23:42;3.35;;;1.17;;
61685;SDS011;47592;45.904;8.978;2022-08-19T07:26:09;3.42;;;1.10;;
61685;SDS011;47592;45.904;8.978;2022-08-19T07:28:36;2.58;;;1.00;;
61685;SDS011;47592;45.904;8.978;2022-08-19T07:31:07;5.60;;;1.73;;
61685;SDS011;47592;45.904;8.978;2022-08-19T07:33:35;4.10;;;1.20;;
61685;SDS011;47592;45.904;8.978;2022-08-19T07:36:02;2.50;;;0.95;;
61685;SDS011;47592;45.904;8.978;2022-08-19T07:38:31;3.25;;;1.10;;
61685;SDS011;47592;45.904;8.978;2022-08-19T07:40:57;2.72;;;1.10;;
61685;SDS011;47592;45.904;8.978;2022-08-19T07:43:23;4.95;;;1.50;;
61685;SDS011;47592;45.904;8.978;2022-08-19T07:45:50;4.30;;;1.30;;
61685;SDS011;47592;45.904;8.978;2022-08-19T07:48:17;4.43;;;1.30;;
61685;SDS011;47592;45.904;8.978;2022-08-19T07:50:43;3.80;;;1.17;;
61685;SDS011;47592;45.904;8.978;2022-08-19T07:53:08;4.22;;;1.40;;
61685;SDS011;47592;45.904;8.978;2022-08-19T07:55:34;3.67;;;1.20;;
61685;SDS011;47592;45.904;8.978;2022-08-19T07:57:59;4.60;;;1.30;;
61685;SDS011;47592;45.904;8.978;2022-08-19T08:00:25;6.55;;;1.58;;
61685;SDS011;47592;45.904;8.978;2022-08-19T08:02:51;3.53;;;1.30;;
61685;SDS011;47592;45.904;8.978;2022-08-19T08:05:17;4.30;;;1.40;;
61685;SDS011;47592;45.904;8.978;2022-08-19T08:08:01;4.35;;;1.75;;
61685;SDS011;47592;45.904;8.978;2022-08-19T08:10:45;4.80;;;1.30;;
61685;SDS011;47592;45.904;8.978;2022-08-19T08:13:10;3.67;;;1.38;;
61685;SDS011;47592;45.904;8.978;2022-08-19T08:15:36;4.20;;;1.20;;
61685;SDS011;47592;45.904;8.978;2022-08-19T08:18:03;4.70;;;1.30;;
61685;SDS011;47592;45.904;8.978;2022-08-19T08:20:29;3.88;;;1.30;;
61685;SDS011;47592;45.904;8.978;2022-08-19T08:22:54;6.07;;;1.33;;
61685;SDS011;47592;45.904;8.978;2022-08-19T08:25:38;2.85;;;1.00;;
61685;SDS011;47592;45.904;8.978;2022-08-19T08:28:03;3.45;;;1.27;;
61685;SDS011;47592;45.904;8.978;2022-08-19T08:30:29;3.65;;;1.20;;
61685;SDS011;47592;45.904;8.978;2022-08-19T08:32:55;3.30;;;1.30;;
61685;SDS011;47592;45.904;8.978;2022-08-19T08:35:21;4.88;;;1.30;;
61685;SDS011;47592;45.904;8.978;2022-08-19T08:37:48;5.75;;;1.20;;
61685;SDS011;47592;45.904;8.978;2022-08-19T08:40:23;3.50;;;1.23;;
61685;SDS011;47592;45.904;8.978;2022-08-19T08:43:09;4.13;;;1.27;;
61685;SDS011;47592;45.904;8.978;2022-08-19T08:45:46;3.55;;;1.30;;
61685;SDS011;47592;45.904;8.978;2022-08-19T08:48:18;3.40;;;1.10;;
61685;SDS011;47592;45.904;8.978;2022-08-19T08:50:47;4.25;;;1.20;;
61685;SDS011;47592;45.904;8.978;2022-08-19T08:53:18;5.55;;;1.15;;
61685;SDS011;47592;45.904;8.978;2022-08-19T08:55:44;3.63;;;1.23;;
61685;SDS011;47592;45.904;8.978;2022-08-19T08:58:15;6.35;;;1.48;;
61685;SDS011;47592;45.904;8.978;2022-08-19T09:00:45;3.05;;;1.15;;
61685;SDS011;47592;45.904;8.978;2022-08-19T09:03:22;4.25;;;1.10;;
61685;SDS011;47592;45.904;8.978;2022-08-19T09:05:59;5.90;;;1.20;;
61685;SDS011;47592;45.904;8.978;2022-08-19T09:11:14;3.55;;;1.20;;
61685;SDS011;47592;45.904;8.978;2022-08-19T09:16:17;6.55;;;1.25;;
61685;SDS011;47592;45.904;8.978;2022-08-19T09:18:50;4.68;;;1.20;;
61685;SDS011;47592;45.904;8.978;2022-08-19T09:21:20;3.03;;;1.13;;
61685;SDS011;47592;45.904;8.978;2022-08-19T09:23:47;3.47;;;1.30;;
61685;SDS011;47592;45.904;8.978;2022-08-19T09:26:14;4.80;;;1.27;;
61685;SDS011;47592;45.904;8.978;2022-08-19T09:28:42;3.30;;;1.38;;
61685;SDS011;47592;45.904;8.978;2022-08-19T09:31:27;4.75;;;1.30;;
61685;SDS011;47592;45.904;8.978;2022-08-19T09:33:54;4.15;;;1.20;;
61685;SDS011;47592;45.904;8.978;2022-08-19T09:36:22;3.38;;;1.20;;
61685;SDS011;47592;45.904;8.978;2022-08-19T09:38:50;5.28;;;1.20;;
61685;SDS011;47592;45.904;8.978;2022-08-19T09:41:20;3.20;;;1.23;;
61685;SDS011;47592;45.904;8.978;2022-08-19T09:43:47;5.68;;;1.58;;
61685;SDS011;47592;45.904;8.978;2022-08-19T09:46:17;3.92;;;1.33;;
61685;SDS011;47592;45.904;8.978;2022-08-19T09:48:45;3.00;;;1.17;;
61685;SDS011;47592;45.904;8.978;2022-08-19T09:51:14;4.13;;;1.30;;
61685;SDS011;47592;45.904;8.978;2022-08-19T09:53:42;4.97;;;1.20;;
61685;SDS011;47592;45.904;8.978;2022-08-19T09:56:09;4.78;;;1.40;;
61685;SDS011;47592;45.904;8.978;2022-08-19T09:58:35;4.60;;;1.58;;
61685;SDS011;47592;45.904;8.978;2022-08-19T10:01:01;4.47;;;1.20;;
61685;SDS011;47592;45.904;8.978;2022-08-19T10:03:28;4.10;;;1.40;;
61685;SDS011;47592;45.904;8.978;2022-08-19T10:05:54;4.78;;;1.50;;
61685;SDS011;47592;45.904;8.978;2022-08-19T10:08:22;3.85;;;1.40;;
61685;SDS011;47592;45.904;8.978;2022-08-19T10:10:52;3.70;;;1.23;;
61685;SDS011;47592;45.904;8.978;2022-08-19T10:13:21;4.75;;;1.35;;
61685;SDS011;47592;45.904;8.978;2022-08-19T10:15:47;5.47;;;1.40;;
61685;SDS011;47592;45.904;8.978;2022-08-19T10:18:15;4.35;;;1.30;;
61685;SDS011;47592;45.904;8.978;2022-08-19T10:20:48;5.07;;;1.30;;
61685;SDS011;47592;45.904;8.978;2022-08-19T10:23:14;4.10;;;1.27;;
61685;SDS011;47592;45.904;8.978;2022-08-19T10:25:40;5.03;;;1.40;;
61685;SDS011;47592;45.904;8.978;2022-08-19T10:28:06;3.45;;;1.20;;
61685;SDS011;47592;45.904;8.978;2022-08-19T10:30:32;4.60;;;1.38;;
61685;SDS011;47592;45.904;8.978;2022-08-19T10:32:58;4.82;;;1.13;;
61685;SDS011;47592;45.904;8.978;2022-08-19T10:35:24;4.35;;;1.30;;
61685;SDS011;47592;45.904;8.978;2022-08-19T10:37:52;5.38;;;1.38;;
61685;SDS011;47592;45.904;8.978;2022-08-19T10:40:18;7.72;;;1.48;;
61685;SDS011;47592;45.904;8.978;2022-08-19T10:42:43;4.93;;;1.98;;
61685;SDS011;47592;45.904;8.978;2022-08-19T10:45:09;4.25;;;1.60;;
61685;SDS011;47592;45.904;8.978;2022-08-19T10:47:35;4.38;;;1.50;;
61685;SDS011;47592;45.904;8.978;2022-08-19T10:50:01;5.68;;;1.90;;
61685;SDS011;47592;45.904;8.978;2022-08-19T10:52:46;5.05;;;1.80;;
61685;SDS011;47592;45.904;8.978;2022-08-19T10:55:13;4.22;;;1.65;;
61685;SDS011;47592;45.904;8.978;2022-08-19T10:57:57;5.70;;;1.55;;
61685;SDS011;47592;45.904;8.978;2022-08-19T11:00:23;5.20;;;1.50;;
61685;SDS011;47592;45.904;8.978;2022-08-19T11:02:49;4.75;;;1.30;;
61685;SDS011;47592;45.904;8.978;2022-08-19T11:05:15;3.92;;;1.30;;
61685;SDS011;47592;45.904;8.978;2022-08-19T11:07:42;5.07;;;1.25;;
61685;SDS011;47592;45.904;8.978;2022-08-19T11:10:08;3.13;;;1.10;;
61685;SDS011;47592;45.904;8.978;2022-08-19T11:12:36;3.72;;;1.45;;
61685;SDS011;47592;45.904;8.978;2022-08-19T11:15:04;4.68;;;1.92;;
61685;SDS011;47592;45.904;8.978;2022-08-19T11:17:33;4.72;;;1.40;;
61685;SDS011;47592;45.904;8.978;2022-08-19T11:20:00;4.10;;;1.25;;
61685;SDS011;47592;45.904;8.978;2022-08-19T11:22:29;5.83;;;1.60;;
61685;SDS011;47592;45.904;8.978;2022-08-19T11:24:55;3.72;;;1.42;;
61685;SDS011;47592;45.904;8.978;2022-08-19T11:27:20;4.05;;;1.73;;
61685;SDS011;47592;45.904;8.978;2022-08-19T11:29:46;4.28;;;1.15;;
61685;SDS011;47592;45.904;8.978;2022-08-19T11:32:11;4.13;;;1.35;;
61685;SDS011;47592;45.904;8.978;2022-08-19T11:34:37;4.13;;;1.40;;
61685;SDS011;47592;45.904;8.978;2022-08-19T11:37:04;4.82;;;1.27;;
61685;SDS011;47592;45.904;8.978;2022-08-19T11:39:31;4.32;;;1.23;;
61685;SDS011;47592;45.904;8.978;2022-08-19T11:41:57;3.72;;;1.38;;
61685;SDS011;47592;45.904;8.978;2022-08-19T11:44:24;4.47;;;1.27;;
61685;SDS011;47592;45.904;8.978;2022-08-19T11:46:50;6.07;;;1.08;;
61685;SDS011;47592;45.904;8.978;2022-08-19T11:49:17;3.78;;;1.20;;
61685;SDS011;47592;45.904;8.978;2022-08-19T11:51:44;2.33;;;0.90;;
61685;SDS011;47592;45.904;8.978;2022-08-19T11:54:11;5.32;;;1.00;;
61685;SDS011;47592;45.904;8.978;2022-08-19T11:56:37;3.20;;;1.08;;
61685;SDS011;47592;45.904;8.978;2022-08-19T11:59:03;3.80;;;0.93;;
61685;SDS011;47592;45.904;8.978;2022-08-19T12:01:29;4.95;;;1.20;;
61685;SDS011;47592;45.904;8.978;2022-08-19T12:03:55;3.35;;;0.90;;
61685;SDS011;47592;45.904;8.978;2022-08-19T12:06:22;2.13;;;0.73;;
61685;SDS011;47592;45.904;8.978;2022-08-19T12:08:52;2.58;;;0.75;;
61685;SDS011;47592;45.904;8.978;2022-08-19T12:11:18;2.75;;;0.90;;
61685;SDS011;47592;45.904;8.978;2022-08-19T12:13:44;2.70;;;0.80;;
61685;SDS011;47592;45.904;8.978;2022-08-19T12:16:15;2.72;;;0.77;;
61685;SDS011;47592;45.904;8.978;2022-08-19T12:18:42;2.42;;;0.80;;
61685;SDS011;47592;45.904;8.978;2022-08-19T12:21:12;2.72;;;0.88;;
61685;SDS011;47592;45.904;8.978;2022-08-19T12:23:39;2.22;;;0.70;;
61685;SDS011;47592;45.904;8.978;2022-08-19T12:26:06;4.63;;;0.50;;
61685;SDS011;47592;45.904;8.978;2022-08-19T12:28:31;1.10;;;0.30;;
61685;SDS011;47592;45.904;8.978;2022-08-19T12:30:57;2.47;;;0.50;;
61685;SDS011;47592;45.904;8.978;2022-08-19T12:33:23;1.30;;;0.50;;
61685;SDS011;47592;45.904;8.978;2022-08-19T12:35:52;1.42;;;0.50;;
61685;SDS011;47592;45.904;8.978;2022-08-19T12:38:17;2.20;;;0.40;;
61685;SDS011;47592;45.904;8.978;2022-08-19T12:40:47;1.63;;;0.40;;
61685;SDS011;47592;45.904;8.978;2022-08-19T12:43:12;0.75;;;0.30;;
61685;SDS011;47592;45.904;8.978;2022-08-19T12:45:40;0.43;;;0.20;;
61685;SDS011;47592;45.904;8.978;2022-08-19T12:48:06;1.90;;;0.30;;
61685;SDS011;47592;45.904;8.978;2022-08-19T12:50:31;1.45;;;0.30;;
61685;SDS011;47592;45.904;8.978;2022-08-19T12:52:57;0.85;;;0.20;;
61685;SDS011;47592;45.904;8.978;2022-08-19T12:55:22;0.40;;;0.20;;
61685;SDS011;47592;45.904;8.978;2022-08-19T12:57:49;0.38;;;0.10;;
61685;SDS011;47592;45.904;8.978;2022-08-19T13:00:16;0.93;;;0.10;;
61685;SDS011;47592;45.904;8.978;2022-08-19T13:02:43;0.68;;;0.20;;
61685;SDS011;47592;45.904;8.978;2022-08-19T13:05:11;0.40;;;0.10;;
61685;SDS011;47592;45.904;8.978;2022-08-19T13:07:39;5.30;;;1.13;;
61685;SDS011;47592;45.904;8.978;2022-08-19T13:10:06;5.70;;;0.88;;
61685;SDS011;47592;45.904;8.978;2022-08-19T13:12:32;1.48;;;0.30;;
61685;SDS011;47592;45.904;8.978;2022-08-19T13:14:58;2.13;;;0.20;;
61685;SDS011;47592;45.904;8.978;2022-08-19T13:17:23;1.02;;;0.30;;
61685;SDS011;47592;45.904;8.978;2022-08-19T13:19:49;1.17;;;0.20;;
61685;SDS011;47592;45.904;8.978;2022-08-19T13:22:15;1.52;;;0.40;;
61685;SDS011;47592;45.904;8.978;2022-08-19T13:24:40;0.93;;;0.22;;
61685;SDS011;47592;45.904;8.978;2022-08-19T13:27:06;0.88;;;0.28;;
61685;SDS011;47592;45.904;8.978;2022-08-19T13:29:32;1.58;;;0.30;;
61685;SDS011;47592;45.904;8.978;2022-08-19T13:32:16;0.30;;;0.17;;
61685;SDS011;47592;45.904;8.978;2022-08-19T13:35:00;1.33;;;0.20;;
61685;SDS011;47592;45.904;8.978;2022-08-19T13:37:26;0.52;;;0.20;;
61685;SDS011;47592;45.904;8.978;2022-08-19T13:40:07;3.30;;;0.47;;
61685;SDS011;47592;45.904;8.978;2022-08-19T13:42:39;0.65;;;0.22;;
61685;SDS011;47592;45.904;8.978;2022-08-19T13:45:05;1.25;;;0.20;;
61685;SDS011;47592;45.904;8.978;2022-08-19T13:47:31;0.45;;;0.20;;
61685;SDS011;47592;45.904;8.978;2022-08-19T13:49:59;0.10;;;0.10;;
61685;SDS011;47592;45.904;8.978;2022-08-19T13:52:25;3.20;;;0.32;;
61685;SDS011;47592;45.904;8.978;2022-08-19T13:54:51;0.43;;;0.10;;
61685;SDS011;47592;45.904;8.978;2022-08-19T13:57:16;0.57;;;0.10;;
61685;SDS011;47592;45.904;8.978;2022-08-19T13:59:41;0.22;;;0.10;;
61685;SDS011;47592;45.904;8.978;2022-08-19T14:02:07;0.10;;;0.10;;
61685;SDS011;47592;45.904;8.978;2022-08-19T14:04:32;0.32;;;0.10;;
61685;SDS011;47592;45.904;8.978;2022-08-19T14:06:58;0.57;;;0.20;;
61685;SDS011;47592;45.904;8.978;2022-08-19T14:09:23;0.65;;;0.10;;
61685;SDS011;47592;45.904;8.978;2022-08-19T14:11:48;0.82;;;0.20;;
61685;SDS011;47592;45.904;8.978;2022-08-19T14:14:15;0.47;;;0.20;;
61685;SDS011;47592;45.904;8.978;2022-08-19T14:16:41;0.40;;;0.17;;
61685;SDS011;47592;45.904;8.978;2022-08-19T14:19:07;0.75;;;0.20;;
61685;SDS011;47592;45.904;8.978;2022-08-19T14:21:33;1.02;;;0.20;;
61685;SDS011;47592;45.904;8.978;2022-08-19T14:23:59;0.65;;;0.10;;
61685;SDS011;47592;45.904;8.978;2022-08-19T14:26:25;0.70;;;0.10;;
61685;SDS011;47592;45.904;8.978;2022-08-19T14:28:51;1.75;;;0.20;;
61685;SDS011;47592;45.904;8.978;2022-08-19T14:31:18;0.63;;;0.10;;
61685;SDS011;47592;45.904;8.978;2022-08-19T14:33:47;0.35;;;0.10;;
61685;SDS011;47592;45.904;8.978;2022-08-19T14:36:13;0.65;;;0.10;;
61685;SDS011;47592;45.904;8.978;2022-08-19T14:38:38;0.43;;;0.15;;
61685;SDS011;47592;45.904;8.978;2022-08-19T14:41:09;0.28;;;0.13;;
61685;SDS011;47592;45.904;8.978;2022-08-19T14:43:34;1.38;;;0.10;;
61685;SDS011;47592;45.904;8.978;2022-08-19T14:46:00;0.28;;;0.20;;
61685;SDS011;47592;45.904;8.978;2022-08-19T14:48:25;0.63;;;0.30;;
61685;SDS011;47592;45.904;8.978;2022-08-19T14:50:51;1.20;;;0.20;;
61685;SDS011;47592;45.904;8.978;2022-08-19T14:53:17;0.40;;;0.20;;
61685;SDS011;47592;45.904;8.978;2022-08-19T14:55:43;1.17;;;0.30;;
61685;SDS011;47592;45.904;8.978;2022-08-19T14:58:10;1.98;;;0.20;;
61685;SDS011;47592;45.904;8.978;2022-08-19T15:00:37;0.82;;;0.10;;
61685;SDS011;47592;45.904;8.978;2022-08-19T15:03:02;0.52;;;0.10;;
61685;SDS011;47592;45.904;8.978;2022-08-19T15:05:28;0.47;;;0.20;;
61685;SDS011;47592;45.904;8.978;2022-08-19T15:07:53;0.95;;;0.28;;